createdAt,value
2023-05-02T00:00:05.432Z,3.14
2023-05-02T00:01:08.443Z,2.50
2023-05-02T00:02:19.030Z,2.00
2023-05-02T00:03:22.068Z,0.00
2023-05-02T00:04:25.100Z,1.29
2023-05-02T00:05:28.378Z,4.29
2023-05-02T00:06:31.503Z,3.14
2023-05-02T00:07:34.707Z,2.57
2023-05-02T00:08:37.783Z,2.71
2023-05-02T00:09:40.963Z,4.00
2023-05-02T00:10:44.147Z,2.83
2023-05-02T00:11:47.232Z,1.00
2023-05-02T00:12:50.405Z,1.17
2023-05-02T00:13:53.493Z,2.14
2023-05-02T00:14:56.570Z,3.14
2023-05-02T00:15:59.754Z,2.57
2023-05-02T00:17:02.899Z,4.14
2023-05-02T00:18:06.130Z,5.57
2023-05-02T00:19:09.197Z,3.33
2023-05-02T00:20:12.276Z,4.00
2023-05-02T00:21:15.462Z,3.57
2023-05-02T00:22:18.515Z,4.00
2023-05-02T00:23:21.716Z,3.14
2023-05-02T00:24:24.798Z,2.86
2023-05-02T00:25:27.874Z,4.00
2023-05-02T00:26:31.463Z,3.00
2023-05-02T00:27:34.546Z,2.43
2023-05-02T00:28:37.728Z,2.43
2023-05-02T00:29:40.809Z,2.71
2023-05-02T00:30:43.987Z,2.67
2023-05-02T00:31:46.860Z,2.33
2023-05-02T00:32:50.016Z,3.29
2023-05-02T00:33:53.119Z,3.00
2023-05-02T00:34:56.207Z,3.00
2023-05-02T00:35:59.390Z,3.33
2023-05-02T00:37:02.361Z,3.83
2023-05-02T00:38:05.645Z,2.43
2023-05-02T00:39:08.837Z,3.00
2023-05-02T00:40:12.011Z,2.14
2023-05-02T00:41:15.204Z,2.00
2023-05-02T00:42:18.195Z,3.29
2023-05-02T00:43:21.143Z,2.43
2023-05-02T00:44:24.326Z,1.33
2023-05-02T00:45:27.510Z,2.00
2023-05-02T00:46:30.719Z,1.57
2023-05-02T00:47:34.045Z,2.29
2023-05-02T00:48:37.568Z,2.50
2023-05-02T00:49:40.751Z,2.43
2023-05-02T00:50:43.928Z,3.00
2023-05-02T00:51:47.126Z,2.67
2023-05-02T00:52:50.203Z,2.17
2023-05-02T00:53:53.104Z,3.33
2023-05-02T00:54:56.101Z,4.00
2023-05-02T00:55:59.648Z,3.14
2023-05-02T00:57:03.122Z,4.14
2023-05-02T00:58:06.200Z,5.14
2023-05-02T00:59:09.281Z,2.00
2023-05-02T01:01:15.990Z,3.00
2023-05-02T01:02:19.145Z,3.00
2023-05-02T01:03:22.494Z,3.00
2023-05-02T01:04:25.606Z,2.29
2023-05-02T01:05:28.689Z,3.57
2023-05-02T01:06:31.904Z,2.43
2023-05-02T01:07:35.250Z,2.43
2023-05-02T01:08:38.325Z,3.00
2023-05-02T01:09:41.716Z,2.29
2023-05-02T01:10:45.003Z,2.00
2023-05-02T01:11:48.177Z,2.43
2023-05-02T01:12:51.357Z,3.00
2023-05-02T01:13:54.645Z,2.43
2023-05-02T01:16:11.505Z,3.12
2023-05-02T01:17:14.532Z,2.57
2023-05-02T01:18:17.717Z,2.43
2023-05-02T01:19:20.897Z,2.43
2023-05-02T01:20:24.282Z,2.29
2023-05-02T01:21:27.462Z,2.00
2023-05-02T01:22:30.404Z,3.14
2023-05-02T01:23:33.630Z,2.57
2023-05-02T01:24:37.023Z,3.00
2023-05-02T01:25:40.293Z,3.00
2023-05-02T01:26:43.583Z,3.00
2023-05-02T01:27:46.973Z,3.14
2023-05-02T01:28:50.365Z,3.00
2023-05-02T01:29:53.615Z,2.14
2023-05-02T01:30:57.144Z,2.17
2023-05-02T01:32:00.604Z,2.57
2023-05-02T01:33:03.958Z,2.71
2023-05-02T01:34:07.281Z,2.29
2023-05-02T01:35:10.465Z,2.86
2023-05-02T01:36:13.852Z,3.00
2023-05-02T01:37:17.244Z,2.14
2023-05-02T01:38:20.729Z,1.86
2023-05-02T01:39:23.901Z,3.00
2023-05-02T01:40:27.194Z,2.00
2023-05-02T01:41:30.378Z,2.00
2023-05-02T01:42:33.665Z,2.00
2023-05-02T01:43:36.943Z,3.43
2023-05-02T01:44:40.541Z,3.71
2023-05-02T01:45:44.032Z,4.00
2023-05-02T01:46:47.289Z,3.00
2023-05-02T01:47:50.668Z,2.57
2023-05-02T01:48:53.983Z,2.00
2023-05-02T01:49:57.593Z,2.57
2023-05-02T01:51:01.038Z,2.00
2023-05-02T01:52:04.348Z,2.71
2023-05-02T01:53:07.635Z,2.86
2023-05-02T01:54:10.833Z,2.14
2023-05-02T01:55:14.073Z,2.33
2023-05-02T01:56:17.586Z,2.00
2023-05-02T01:57:20.991Z,2.00
2023-05-02T01:58:24.256Z,1.57
2023-05-02T01:59:27.651Z,1.86
2023-05-02T02:00:31.038Z,2.14
2023-05-02T02:01:34.443Z,3.29
2023-05-02T02:02:37.901Z,4.00
2023-05-02T02:03:41.293Z,3.57
2023-05-02T02:04:44.735Z,2.71
2023-05-02T02:05:48.077Z,2.86
2023-05-02T02:06:51.468Z,3.67
2023-05-02T02:07:54.740Z,2.29
2023-05-02T02:08:58.025Z,2.14
2023-05-02T02:10:01.937Z,1.57
2023-05-02T02:11:05.523Z,1.25
2023-05-02T02:12:08.884Z,2.14
2023-05-02T02:13:12.057Z,2.14
2023-05-02T02:14:15.368Z,2.00
2023-05-02T02:15:18.781Z,2.29
2023-05-02T02:16:22.082Z,2.14
2023-05-02T02:17:25.329Z,1.29
2023-05-02T02:18:28.558Z,1.86
2023-05-02T02:19:31.682Z,2.43
2023-05-02T02:20:34.972Z,2.00
2023-05-02T02:21:38.149Z,3.71
2023-05-02T02:22:41.246Z,2.86
2023-05-02T02:23:44.225Z,3.00
2023-05-02T02:24:47.392Z,3.00
2023-05-02T02:25:50.580Z,2.43
2023-05-02T02:26:53.566Z,3.00
2023-05-02T02:27:56.734Z,2.57
2023-05-02T02:28:59.765Z,2.29
2023-05-02T02:30:02.932Z,3.17
2023-05-02T02:31:06.334Z,1.71
2023-05-02T02:32:09.454Z,1.14
2023-05-02T02:33:12.676Z,2.29
2023-05-02T02:34:15.721Z,3.14
2023-05-02T02:35:18.930Z,4.00
2023-05-02T02:36:22.183Z,2.33
2023-05-02T02:37:25.262Z,2.50
2023-05-02T02:38:28.549Z,1.83
2023-05-02T02:39:31.626Z,3.00
2023-05-02T02:40:34.809Z,2.67
2023-05-02T02:41:37.893Z,2.50
2023-05-02T02:42:40.991Z,2.33
2023-05-02T02:43:44.041Z,1.86
2023-05-02T02:44:47.205Z,2.43
2023-05-02T02:45:50.227Z,2.14
2023-05-02T02:46:53.184Z,1.00
2023-05-02T02:47:56.355Z,2.17
2023-05-02T02:48:59.294Z,2.00
2023-05-02T02:50:02.515Z,2.00
2023-05-02T02:51:05.818Z,2.00
2023-05-02T02:52:08.893Z,1.86
2023-05-02T02:53:12.158Z,2.00
2023-05-02T02:54:25.828Z,1.14
2023-05-02T02:55:19.452Z,0.62
2023-05-02T02:56:22.431Z,1.86
2023-05-02T02:57:25.508Z,1.57
2023-05-02T02:58:28.701Z,1.00
2023-05-02T02:59:31.891Z,2.33
2023-05-02T03:00:35.065Z,1.67
2023-05-02T03:01:38.124Z,2.17
2023-05-02T03:02:41.251Z,1.67
2023-05-02T03:03:44.426Z,1.57
2023-05-02T03:04:47.474Z,0.43
2023-05-02T03:05:50.660Z,1.00
2023-05-02T03:06:53.877Z,2.29
2023-05-02T03:07:57.232Z,2.86
2023-05-02T03:09:00.352Z,1.57
2023-05-02T03:10:03.464Z,0.29
2023-05-02T03:11:06.568Z,1.33
2023-05-02T03:12:09.748Z,1.33
2023-05-02T03:13:12.830Z,1.00
2023-05-02T03:14:15.905Z,1.00
2023-05-02T03:15:18.892Z,1.00
2023-05-02T03:16:22.065Z,1.43
2023-05-02T03:17:26.357Z,2.00
2023-05-02T03:18:29.254Z,2.50
2023-05-02T03:19:32.352Z,3.33
2023-05-02T03:20:35.413Z,1.83
2023-05-02T03:21:39.211Z,0.62
2023-05-02T03:22:42.284Z,1.00
2023-05-02T03:23:45.374Z,2.14
2023-05-02T03:24:48.449Z,2.67
2023-05-02T03:25:51.634Z,2.00
2023-05-02T03:26:54.618Z,1.43
2023-05-02T03:27:57.686Z,1.57
2023-05-02T03:29:00.778Z,1.14
2023-05-02T03:30:03.946Z,1.33
2023-05-02T03:31:07.125Z,1.67
2023-05-02T03:32:10.696Z,1.17
2023-05-02T03:33:13.953Z,0.43
2023-05-02T03:34:17.085Z,0.43
2023-05-02T03:35:20.055Z,1.00
2023-05-02T03:36:23.057Z,0.50
2023-05-02T03:37:26.014Z,0.67
2023-05-02T03:38:29.293Z,1.00
2023-05-02T03:39:32.574Z,1.00
2023-05-02T03:40:35.771Z,0.29
2023-05-02T03:41:38.855Z,0.43
2023-05-02T03:42:41.796Z,1.14
2023-05-02T03:43:44.820Z,2.67
2023-05-02T03:44:47.772Z,3.67
2023-05-02T03:45:50.854Z,1.86
2023-05-02T03:46:53.961Z,0.57
2023-05-02T03:47:57.168Z,0.00
2023-05-02T03:49:00.197Z,0.67
2023-05-02T03:50:03.327Z,2.00
2023-05-02T03:51:06.356Z,3.00
2023-05-02T03:52:09.429Z,5.29
2023-05-02T03:53:12.474Z,3.86
2023-05-02T03:54:15.617Z,1.43
2023-05-02T03:55:18.742Z,1.67
2023-05-02T03:56:21.854Z,1.00
2023-05-02T03:57:25.152Z,1.43
2023-05-02T03:58:28.646Z,2.00
2023-05-02T03:59:31.926Z,1.43
2023-05-02T04:00:35.510Z,1.86
2023-05-02T04:01:38.745Z,1.00
2023-05-02T04:02:42.426Z,1.00
2023-05-02T04:03:45.896Z,1.00
2023-05-02T04:04:49.257Z,1.14
2023-05-02T04:05:52.439Z,1.00
2023-05-02T04:06:55.766Z,1.14
2023-05-02T04:07:59.006Z,1.86
2023-05-02T04:09:08.063Z,1.57
2023-05-02T04:10:11.122Z,0.37
2023-05-02T04:11:14.152Z,1.43
2023-05-02T04:12:17.362Z,1.57
2023-05-02T04:13:20.550Z,1.00
2023-05-02T04:14:23.738Z,1.33
2023-05-02T04:15:26.913Z,1.67
2023-05-02T04:16:30.038Z,3.00
2023-05-02T04:17:33.184Z,2.33
2023-05-02T04:18:36.360Z,2.00
2023-05-02T04:19:39.531Z,2.00
2023-05-02T04:20:42.814Z,0.57
2023-05-02T04:21:45.801Z,1.57
2023-05-02T04:22:48.734Z,2.43
2023-05-02T04:23:51.858Z,2.43
2023-05-02T04:24:55.190Z,2.67
2023-05-02T04:25:58.330Z,2.17
2023-05-02T04:27:01.606Z,1.83
2023-05-02T04:28:04.781Z,0.17
2023-05-02T04:29:07.976Z,0.67
2023-05-02T04:30:11.263Z,0.00
2023-05-02T04:31:14.531Z,0.33
2023-05-02T04:32:17.810Z,1.00
2023-05-02T04:33:21.379Z,0.57
2023-05-02T04:34:24.705Z,0.29
2023-05-02T04:35:27.890Z,0.43
2023-05-02T04:36:31.162Z,1.14
2023-05-02T04:37:34.338Z,1.57
2023-05-02T04:38:37.848Z,0.57
2023-05-02T04:39:41.113Z,0.86
2023-05-02T04:40:44.397Z,1.83
2023-05-02T04:41:47.781Z,2.33
2023-05-02T04:42:51.073Z,3.00
2023-05-02T04:43:54.318Z,2.57
2023-05-02T04:44:57.510Z,2.00
2023-05-02T04:46:00.773Z,1.14
2023-05-02T04:47:04.003Z,1.14
2023-05-02T04:48:07.286Z,2.14
2023-05-02T04:49:12.176Z,1.43
2023-05-02T04:50:15.285Z,1.50
2023-05-02T04:51:18.353Z,1.33
2023-05-02T04:52:21.345Z,1.67
2023-05-02T04:53:24.440Z,0.00
2023-05-02T04:54:27.506Z,0.43
2023-05-02T04:55:30.788Z,0.57
2023-05-02T04:56:33.978Z,0.00
2023-05-02T04:57:37.458Z,0.86
2023-05-02T04:58:40.622Z,1.00
2023-05-02T04:59:43.823Z,1.00
2023-05-02T05:00:47.111Z,1.43
2023-05-02T05:01:50.463Z,2.29
2023-05-02T05:02:53.873Z,3.29
2023-05-02T05:03:57.063Z,2.14
2023-05-02T05:05:00.209Z,0.43
2023-05-02T05:06:03.636Z,0.86
2023-05-02T05:07:06.750Z,1.86
2023-05-02T05:08:09.888Z,2.83
2023-05-02T05:09:13.893Z,2.29
2023-05-02T05:10:17.200Z,2.37
2023-05-02T05:11:20.458Z,0.43
2023-05-02T05:12:23.747Z,1.00
2023-05-02T05:13:27.648Z,2.86
2023-05-02T05:14:30.820Z,3.75
2023-05-02T05:15:34.120Z,1.57
2023-05-02T05:16:37.314Z,3.00
2023-05-02T05:17:40.525Z,2.71
2023-05-02T05:18:43.560Z,2.00
2023-05-02T05:19:46.564Z,3.00
2023-05-02T05:20:49.718Z,2.00
2023-05-02T05:21:52.793Z,1.83
2023-05-02T05:22:55.892Z,2.00
2023-05-02T05:23:58.838Z,2.43
2023-05-02T05:25:01.834Z,3.00
2023-05-02T05:26:04.913Z,2.33
2023-05-02T05:27:07.981Z,2.00
2023-05-02T05:28:12.578Z,2.00
2023-05-02T05:29:15.266Z,1.50
2023-05-02T05:30:18.348Z,0.86
2023-05-02T05:31:21.460Z,0.00
2023-05-02T05:32:24.670Z,0.17
2023-05-02T05:33:27.748Z,0.17
2023-05-02T05:34:30.879Z,0.00
2023-05-02T05:35:34.102Z,0.00
2023-05-02T05:36:37.336Z,0.29
2023-05-02T05:37:40.930Z,0.29
2023-05-02T05:38:44.114Z,1.29
2023-05-02T05:39:47.388Z,3.33
2023-05-02T05:40:50.558Z,4.71
2023-05-02T05:41:54.063Z,2.71
2023-05-02T05:42:57.655Z,1.71
2023-05-02T05:44:00.918Z,0.88
2023-05-02T05:45:04.642Z,2.29
2023-05-02T05:46:07.916Z,2.86
2023-05-02T05:47:11.160Z,0.00
2023-05-02T05:48:14.519Z,0.29
2023-05-02T05:49:17.985Z,0.14
2023-05-02T05:50:21.266Z,0.75
2023-05-02T05:51:24.545Z,1.86
2023-05-02T05:52:27.691Z,1.00
2023-05-02T05:53:30.868Z,0.43
2023-05-02T05:54:34.301Z,0.83
2023-05-02T05:55:37.673Z,1.00
2023-05-02T05:56:41.478Z,0.50
2023-05-02T05:57:44.823Z,0.57
2023-05-02T05:58:48.088Z,0.43
2023-05-02T05:59:51.224Z,1.00
2023-05-02T06:00:54.509Z,0.57
2023-05-02T06:01:57.768Z,0.00
2023-05-02T06:03:01.061Z,0.00
2023-05-02T06:04:04.461Z,0.00
2023-05-02T06:05:07.606Z,0.00
2023-05-02T06:06:10.633Z,0.00
2023-05-02T06:07:13.713Z,0.00
2023-05-02T06:08:16.582Z,0.00
2023-05-02T06:09:19.728Z,1.00
2023-05-02T06:10:22.757Z,1.43
2023-05-02T06:11:25.813Z,0.57
2023-05-02T06:12:28.998Z,0.17
2023-05-02T06:13:32.041Z,0.17
2023-05-02T06:14:35.163Z,0.17
2023-05-02T06:15:38.199Z,0.43
2023-05-02T06:16:41.296Z,1.43
2023-05-02T06:17:44.454Z,1.67
2023-05-02T06:18:47.489Z,0.83
2023-05-02T06:19:50.558Z,1.00
2023-05-02T06:20:53.741Z,0.86
2023-05-02T06:21:56.925Z,0.00
2023-05-02T06:22:59.890Z,0.43
2023-05-02T06:24:04.486Z,1.17
2023-05-02T06:25:07.283Z,0.00
2023-05-02T06:26:10.487Z,0.14
2023-05-02T06:27:13.595Z,0.57
2023-05-02T06:28:16.419Z,0.33
2023-05-02T06:29:19.603Z,1.00
2023-05-02T06:30:22.561Z,0.57
2023-05-02T06:31:25.791Z,0.00
2023-05-02T06:32:28.956Z,0.00
2023-05-02T06:33:32.045Z,0.17
2023-05-02T06:34:34.997Z,0.00
2023-05-02T06:35:38.198Z,0.00
2023-05-02T06:36:41.175Z,0.00
2023-05-02T06:37:44.339Z,0.00
2023-05-02T06:38:47.417Z,0.33
2023-05-02T06:39:50.456Z,0.67
2023-05-02T06:40:53.436Z,0.43
2023-05-02T06:41:56.547Z,0.57
2023-05-02T06:43:01.440Z,0.00
2023-05-02T06:44:04.453Z,1.00
2023-05-02T06:45:07.528Z,1.67
2023-05-02T06:46:10.709Z,0.71
2023-05-02T06:47:13.968Z,1.00
2023-05-02T06:48:17.351Z,0.57
2023-05-02T06:49:20.359Z,0.29
2023-05-02T06:50:23.449Z,0.00
2023-05-02T06:51:26.624Z,0.33
2023-05-02T06:52:29.906Z,1.00
2023-05-02T06:53:33.168Z,0.00
2023-05-02T06:54:36.544Z,0.00
2023-05-02T06:55:39.760Z,0.33
2023-05-02T06:56:43.960Z,1.00
2023-05-02T06:57:47.350Z,1.12
2023-05-02T06:58:50.773Z,0.86
2023-05-02T06:59:54.020Z,1.57
2023-05-02T07:00:57.445Z,1.00
2023-05-02T07:02:01.540Z,1.00
2023-05-02T07:03:05.162Z,1.50
2023-05-02T07:04:08.438Z,1.14
2023-05-02T07:05:11.877Z,0.00
2023-05-02T07:06:16.117Z,0.00
2023-05-02T07:07:19.265Z,0.50
2023-05-02T07:08:23.416Z,0.00
2023-05-02T07:09:27.077Z,0.00
2023-05-02T07:10:30.551Z,0.29
2023-05-02T07:11:34.034Z,0.00
2023-05-02T07:12:37.529Z,0.43
2023-05-02T07:13:41.346Z,0.57
2023-05-02T07:14:44.610Z,0.37
2023-05-02T07:15:47.889Z,1.00
2023-05-02T07:16:51.114Z,0.67
2023-05-02T07:17:54.533Z,0.33
2023-05-02T07:18:57.968Z,0.57
2023-05-02T07:20:01.541Z,0.43
2023-05-02T07:21:06.930Z,1.00
2023-05-02T07:22:10.462Z,0.50
2023-05-02T07:23:13.860Z,0.00
2023-05-02T07:24:17.350Z,0.43
2023-05-02T07:25:20.627Z,1.00
2023-05-02T07:26:23.909Z,0.86
2023-05-02T07:27:27.578Z,0.57
2023-05-02T07:28:30.883Z,0.00
2023-05-02T07:29:34.692Z,0.86
2023-05-02T07:30:38.179Z,1.50
2023-05-02T07:31:41.610Z,1.00
2023-05-02T07:32:44.980Z,1.00
2023-05-02T07:33:48.535Z,0.57
2023-05-02T07:34:51.830Z,1.29
2023-05-02T07:35:55.654Z,2.14
2023-05-02T07:36:58.913Z,1.00
2023-05-02T07:38:02.080Z,1.00
2023-05-02T07:39:05.571Z,0.57
2023-05-02T07:40:09.416Z,0.43
2023-05-02T07:41:12.967Z,0.57
2023-05-02T07:42:16.356Z,0.43
2023-05-02T07:43:20.021Z,1.00
2023-05-02T07:44:23.355Z,0.29
2023-05-02T07:45:27.350Z,0.00
2023-05-02T07:46:30.856Z,0.50
2023-05-02T07:47:34.361Z,0.71
2023-05-02T07:48:37.790Z,0.57
2023-05-02T07:49:40.979Z,0.00
2023-05-02T07:50:44.500Z,0.33
2023-05-02T07:51:48.184Z,1.00
2023-05-02T07:52:51.555Z,1.00
2023-05-02T07:53:55.056Z,1.00
2023-05-02T07:54:58.401Z,0.62
2023-05-02T07:56:02.016Z,1.43
2023-05-02T07:57:05.228Z,1.43
2023-05-02T07:58:08.488Z,0.57
2023-05-02T07:59:11.881Z,1.00
2023-05-02T08:00:15.253Z,1.43
2023-05-02T08:01:18.646Z,1.57
2023-05-02T08:02:22.656Z,1.00
2023-05-02T08:03:26.203Z,1.00
2023-05-02T08:04:29.656Z,1.00
2023-05-02T08:05:35.368Z,0.14
2023-05-02T08:06:39.123Z,0.00
2023-05-02T08:07:42.353Z,0.86
2023-05-02T08:08:45.523Z,1.29
2023-05-02T08:09:49.014Z,1.43
2023-05-02T08:10:52.400Z,1.00
2023-05-02T08:11:55.501Z,0.33
2023-05-02T08:12:58.778Z,0.50
2023-05-02T08:14:02.044Z,1.29
2023-05-02T08:15:05.539Z,2.00
2023-05-02T08:16:08.644Z,2.00
2023-05-02T08:17:11.697Z,1.17
2023-05-02T08:18:14.962Z,1.43
2023-05-02T08:19:18.267Z,2.00
2023-05-02T08:20:21.363Z,1.14
2023-05-02T08:21:24.324Z,1.00
2023-05-02T08:22:27.517Z,0.00
2023-05-02T08:23:31.310Z,0.33
2023-05-02T08:24:34.491Z,1.43
2023-05-02T08:25:39.285Z,1.57
2023-05-02T08:26:42.091Z,1.00
2023-05-02T08:27:45.576Z,1.71
2023-05-02T08:28:48.948Z,3.29
2023-05-02T08:29:52.238Z,3.14
2023-05-02T08:30:55.412Z,2.00
2023-05-02T08:31:58.889Z,2.00
2023-05-02T08:33:02.093Z,1.86
2023-05-02T08:34:05.367Z,2.00
2023-05-02T08:35:08.662Z,1.57
2023-05-02T08:36:11.739Z,1.00
2023-05-02T08:37:14.816Z,1.33
2023-05-02T08:38:18.120Z,1.67
2023-05-02T08:39:21.183Z,1.43
2023-05-02T08:40:34.061Z,1.57
2023-05-02T08:41:29.282Z,1.00
2023-05-02T08:42:32.466Z,1.43
2023-05-02T08:43:35.643Z,1.29
2023-05-02T08:44:38.801Z,1.14
2023-05-02T08:45:41.911Z,0.33
2023-05-02T08:46:45.032Z,1.17
2023-05-02T08:47:48.103Z,0.67
2023-05-02T08:48:51.262Z,0.57
2023-05-02T08:49:54.330Z,1.57
2023-05-02T08:50:57.612Z,1.00
2023-05-02T08:52:02.860Z,1.00
2023-05-02T08:53:06.335Z,2.00
2023-05-02T08:54:09.406Z,2.86
2023-05-02T08:55:12.510Z,2.00
2023-05-02T08:56:15.777Z,1.86
2023-05-02T08:57:18.874Z,1.00
2023-05-02T08:58:21.936Z,1.33
2023-05-02T08:59:24.984Z,2.00
2023-05-02T09:00:28.195Z,2.43
2023-05-02T09:01:31.680Z,1.86
2023-05-02T09:02:34.692Z,0.67
2023-05-02T09:03:38.456Z,0.43
2023-05-02T09:04:41.658Z,1.00
2023-05-02T09:05:44.816Z,1.43
2023-05-02T09:06:53.586Z,2.00
2023-05-02T09:07:56.637Z,1.00
2023-05-02T09:08:59.792Z,0.33
2023-05-02T09:10:02.871Z,1.86
2023-05-02T09:11:05.953Z,2.00
2023-05-02T09:12:09.152Z,1.57
2023-05-02T09:13:12.419Z,1.00
2023-05-02T09:14:16.069Z,1.00
2023-05-02T09:15:20.771Z,1.57
2023-05-02T09:16:23.505Z,3.00
2023-05-02T09:17:26.704Z,2.57
2023-05-02T09:18:30.073Z,1.00
2023-05-02T09:19:33.350Z,1.14
2023-05-02T09:20:36.532Z,2.00
2023-05-02T09:21:41.368Z,2.00
2023-05-02T09:22:44.631Z,1.50
2023-05-02T09:23:50.516Z,1.00
2023-05-02T09:24:59.996Z,1.50
2023-05-02T09:26:03.500Z,2.00
2023-05-02T09:27:06.997Z,1.43
2023-05-02T09:28:10.272Z,2.00
2023-05-02T09:29:13.641Z,1.71
2023-05-02T09:30:16.850Z,1.57
2023-05-02T09:31:37.447Z,1.14
2023-05-02T09:32:24.392Z,1.50
2023-05-02T09:33:27.984Z,1.00
2023-05-02T09:34:31.211Z,0.86
2023-05-02T09:35:34.391Z,1.00
2023-05-02T09:36:37.747Z,0.67
2023-05-02T09:37:41.876Z,0.50
2023-05-02T09:38:44.957Z,1.00
2023-05-02T09:39:48.036Z,1.33
2023-05-02T09:40:51.089Z,2.43
2023-05-02T09:41:54.602Z,1.86
2023-05-02T09:42:58.007Z,1.00
2023-05-02T09:44:01.096Z,1.43
2023-05-02T09:45:04.251Z,1.57
2023-05-02T09:46:07.462Z,1.86
2023-05-02T09:47:10.523Z,2.57
2023-05-02T09:48:13.810Z,2.00
2023-05-02T09:49:17.157Z,2.00
2023-05-02T09:50:20.576Z,1.43
2023-05-02T09:51:23.952Z,2.00
2023-05-02T09:52:27.162Z,2.00
2023-05-02T09:53:30.933Z,1.57
2023-05-02T09:54:34.346Z,1.86
2023-05-02T09:55:37.831Z,1.87
2023-05-02T09:56:40.971Z,2.00
2023-05-02T09:57:44.382Z,3.33
2023-05-02T09:58:47.574Z,1.86
2023-05-02T09:59:51.884Z,1.00
2023-05-02T10:01:00.588Z,1.00
2023-05-02T10:02:03.974Z,1.00
2023-05-02T10:03:09.022Z,1.00
2023-05-02T10:04:11.532Z,1.00
2023-05-02T10:05:14.766Z,1.00
2023-05-02T10:06:18.069Z,1.43
2023-05-02T10:07:21.318Z,1.57
2023-05-02T10:08:24.803Z,1.00
2023-05-02T10:09:27.965Z,1.43
2023-05-02T10:10:31.272Z,1.67
2023-05-02T10:11:34.503Z,2.00
2023-05-02T10:12:37.937Z,2.00
2023-05-02T10:13:41.234Z,1.57
2023-05-02T10:14:45.033Z,1.00
2023-05-02T10:15:48.340Z,1.00
2023-05-02T10:16:51.896Z,1.43
2023-05-02T10:17:55.243Z,1.14
2023-05-02T10:18:58.574Z,0.43
2023-05-02T10:20:03.444Z,1.33
2023-05-02T10:21:06.481Z,1.50
2023-05-02T10:22:10.280Z,1.43
2023-05-02T10:23:13.551Z,2.00
2023-05-02T10:24:16.838Z,3.00
2023-05-02T10:25:21.359Z,3.00
2023-05-02T10:26:41.752Z,2.00
2023-05-02T10:27:44.920Z,1.12
2023-05-02T10:28:53.495Z,2.29
2023-05-02T10:29:56.459Z,1.50
2023-05-02T10:30:59.439Z,1.67
2023-05-02T10:32:03.550Z,1.50
2023-05-02T10:33:06.993Z,1.00
2023-05-02T10:34:09.950Z,1.43
2023-05-02T10:35:13.133Z,1.57
2023-05-02T10:36:16.309Z,2.00
2023-05-02T10:37:19.574Z,2.00
2023-05-02T10:38:24.615Z,1.57
2023-05-02T10:39:27.037Z,1.00
2023-05-02T10:40:30.272Z,1.00
2023-05-02T10:41:33.841Z,1.43
2023-05-02T10:42:37.802Z,1.57
2023-05-02T10:43:41.110Z,1.50
2023-05-02T10:44:44.210Z,1.00
2023-05-02T10:45:47.602Z,1.86
2023-05-02T10:46:52.336Z,2.57
2023-05-02T10:47:56.665Z,1.50
2023-05-02T10:48:59.804Z,1.43
2023-05-02T10:50:02.946Z,1.67
2023-05-02T10:51:06.179Z,1.00
2023-05-02T10:52:09.271Z,1.00
2023-05-02T10:53:12.334Z,1.57
2023-05-02T10:54:15.484Z,0.57
2023-05-02T10:55:18.609Z,1.00
2023-05-02T10:56:21.580Z,1.67
2023-05-02T10:57:24.656Z,1.57
2023-05-02T10:58:27.824Z,1.43
2023-05-02T10:59:31.027Z,2.14
2023-05-02T11:00:34.744Z,1.67
2023-05-02T11:01:38.208Z,2.14
2023-05-02T11:02:41.457Z,1.00
2023-05-02T11:03:44.874Z,2.00
2023-05-02T11:04:47.889Z,1.14
2023-05-02T11:05:51.132Z,1.57
2023-05-02T11:06:54.626Z,2.00
2023-05-02T11:07:57.908Z,3.00
2023-05-02T11:09:04.432Z,3.00
2023-05-02T11:10:07.435Z,1.50
2023-05-02T11:11:10.627Z,1.33
2023-05-02T11:12:19.556Z,2.83
2023-05-02T11:13:24.510Z,4.62
2023-05-02T11:14:27.668Z,2.00
2023-05-02T11:15:34.553Z,1.86
2023-05-02T11:16:38.561Z,2.62
2023-05-02T11:17:41.999Z,4.00
2023-05-02T11:18:45.287Z,4.57
2023-05-02T11:19:49.847Z,3.71
2023-05-02T11:20:54.903Z,2.00
2023-05-02T11:21:58.127Z,4.00
2023-05-02T11:23:01.712Z,4.29
2023-05-02T11:24:05.083Z,2.00
2023-05-02T11:25:08.376Z,2.33
2023-05-02T11:26:11.657Z,3.33
2023-05-02T11:27:14.851Z,4.00
2023-05-02T11:28:18.020Z,4.17
2023-05-02T11:29:21.202Z,3.71
2023-05-02T11:30:24.376Z,4.14
2023-05-02T11:31:27.459Z,2.71
2023-05-02T11:32:30.884Z,1.00
2023-05-02T11:33:34.032Z,1.43
2023-05-02T11:34:37.026Z,2.00
2023-05-02T11:35:42.265Z,2.33
2023-05-02T11:36:45.534Z,2.62
2023-05-02T11:37:48.730Z,2.00
2023-05-02T11:38:51.891Z,1.00
2023-05-02T11:39:55.274Z,2.00
2023-05-02T11:40:58.608Z,2.29
2023-05-02T11:42:01.620Z,2.57
2023-05-02T11:43:04.821Z,1.57
2023-05-02T11:44:08.436Z,0.86
2023-05-02T11:45:13.138Z,1.43
2023-05-02T11:46:16.134Z,2.00
2023-05-02T11:47:20.188Z,3.00
2023-05-02T11:48:23.496Z,2.75
2023-05-02T11:49:26.899Z,1.29
2023-05-02T11:50:31.242Z,1.00
2023-05-02T11:51:34.373Z,1.50
2023-05-02T11:52:37.372Z,1.67
2023-05-02T11:53:40.432Z,1.43
2023-05-02T11:54:45.544Z,2.43
2023-05-02T11:55:49.474Z,2.12
2023-05-02T11:56:52.716Z,2.12
2023-05-02T11:57:56.023Z,2.50
2023-05-02T11:58:59.094Z,2.00
2023-05-02T12:00:02.593Z,2.00
2023-05-02T12:01:05.987Z,2.00
2023-05-02T12:02:09.146Z,1.67
2023-05-02T12:03:12.266Z,2.00
2023-05-02T12:04:15.438Z,2.00
2023-05-02T12:05:18.708Z,2.00
2023-05-02T12:06:22.115Z,2.57
2023-05-02T12:07:25.370Z,2.57
2023-05-02T12:08:29.174Z,2.00
2023-05-02T12:09:33.278Z,1.57
2023-05-02T12:10:36.637Z,1.00
2023-05-02T12:11:39.857Z,1.67
2023-05-02T12:12:43.241Z,3.00
2023-05-02T12:13:46.516Z,2.00
2023-05-02T12:14:49.598Z,1.67
2023-05-02T12:15:52.741Z,1.67
2023-05-02T12:16:56.172Z,2.43
2023-05-02T12:17:59.401Z,3.00
2023-05-02T12:19:02.429Z,3.14
2023-05-02T12:20:06.511Z,2.00
2023-05-02T12:21:09.520Z,2.00
2023-05-02T12:22:12.492Z,2.00
2023-05-02T12:23:15.671Z,1.43
2023-05-02T12:24:21.239Z,2.00
2023-05-02T12:25:25.120Z,2.75
2023-05-02T12:26:28.058Z,2.62
2023-05-02T12:27:31.276Z,1.83
2023-05-02T12:28:34.866Z,1.86
2023-05-02T12:29:37.842Z,2.14
2023-05-02T12:30:41.330Z,2.00
2023-05-02T12:31:44.570Z,2.29
2023-05-02T12:32:47.817Z,2.43
2023-05-02T12:33:51.158Z,3.00
2023-05-02T12:34:55.453Z,2.57
2023-05-02T12:35:58.667Z,2.50
2023-05-02T12:37:01.862Z,2.57
2023-05-02T12:38:05.033Z,2.14
2023-05-02T12:39:08.106Z,2.00
2023-05-02T12:40:11.158Z,2.43
2023-05-02T12:41:14.269Z,3.00
2023-05-02T12:42:17.858Z,3.00
2023-05-02T12:43:20.980Z,2.14
2023-05-02T12:44:24.015Z,1.43
2023-05-02T12:45:28.229Z,2.43
2023-05-02T12:46:31.805Z,2.50
2023-05-02T12:47:35.518Z,2.50
2023-05-02T12:48:38.491Z,2.00
2023-05-02T12:49:41.673Z,2.43
2023-05-02T12:50:44.926Z,3.14
2023-05-02T12:51:47.934Z,2.43
2023-05-02T12:52:50.937Z,2.17
2023-05-02T12:53:54.131Z,2.57
2023-05-02T12:54:57.254Z,2.00
2023-05-02T12:56:00.456Z,2.86
2023-05-02T12:57:03.537Z,2.83
2023-05-02T12:58:06.616Z,1.86
2023-05-02T12:59:09.873Z,2.57
2023-05-02T13:00:13.294Z,2.57
2023-05-02T13:01:18.525Z,2.57
2023-05-02T13:02:21.998Z,2.00
2023-05-02T13:03:29.260Z,1.00
2023-05-02T13:04:32.365Z,1.25
2023-05-02T13:05:37.527Z,1.67
2023-05-02T13:06:40.684Z,1.00
2023-05-02T13:07:43.952Z,1.00
2023-05-02T13:09:00.776Z,1.00
2023-05-02T13:10:04.310Z,1.00
2023-05-02T13:11:07.735Z,1.00
2023-05-02T13:12:10.919Z,1.50
2023-05-02T13:13:14.708Z,2.00
2023-05-02T13:14:23.340Z,2.12
2023-05-02T13:15:27.453Z,2.87
2023-05-02T13:16:34.672Z,3.50
2023-05-02T13:17:38.851Z,4.12
2023-05-02T13:18:42.823Z,3.75
2023-05-02T13:20:01.310Z,2.37
2023-05-02T13:20:51.949Z,2.50
2023-05-02T13:21:55.208Z,3.00
2023-05-02T13:22:58.617Z,2.00
2023-05-02T13:24:01.889Z,1.43
2023-05-02T13:25:05.277Z,2.43
2023-05-02T13:26:08.547Z,2.57
2023-05-02T13:27:11.630Z,2.29
2023-05-02T13:28:14.747Z,2.00
2023-05-02T13:29:17.796Z,1.67
2023-05-02T13:30:20.875Z,1.00
2023-05-02T13:31:24.153Z,1.57
2023-05-02T13:32:27.378Z,1.57
2023-05-02T13:33:30.420Z,1.00
2023-05-02T13:34:33.595Z,0.67
2023-05-02T13:35:36.687Z,0.43
2023-05-02T13:36:39.767Z,1.43
2023-05-02T13:37:42.844Z,1.67
2023-05-02T13:38:46.360Z,0.57
2023-05-02T13:39:49.606Z,0.00
2023-05-02T13:40:53.104Z,0.00
2023-05-02T13:41:56.691Z,0.43
2023-05-02T13:42:59.997Z,1.00
2023-05-02T13:44:03.366Z,1.00
2023-05-02T13:45:06.556Z,0.57
2023-05-02T13:46:09.899Z,0.43
2023-05-02T13:47:13.455Z,1.43
2023-05-02T13:48:16.733Z,1.14
2023-05-02T13:49:20.510Z,0.86
2023-05-02T13:50:24.436Z,1.57
2023-05-02T13:51:27.804Z,0.50
2023-05-02T13:52:31.081Z,0.43
2023-05-02T13:53:34.355Z,1.00
2023-05-02T13:54:37.756Z,0.57
2023-05-02T13:55:41.141Z,0.43
2023-05-02T13:56:44.524Z,1.00
2023-05-02T13:57:47.807Z,1.00
2023-05-02T13:58:51.080Z,1.00
2023-05-02T13:59:54.687Z,1.14
2023-05-02T14:00:58.275Z,2.00
2023-05-02T14:02:01.827Z,1.50
2023-05-02T14:03:05.357Z,1.57
2023-05-02T14:04:09.208Z,0.86
2023-05-02T14:05:13.079Z,0.00
2023-05-02T14:06:16.645Z,0.00